sensor_id;sensor_type;location;lat;lon;timestamp;P1;durP1;ratioP1;P2;durP2;ratioP2
11839;SDS011;5979;50.800;4.904;2023-02-28T00:02:21;7.53;;;5.20;;
11839;SDS011;5979;50.800;4.904;2023-02-28T00:04:47;9.03;;;5.73;;
11839;SDS011;5979;50.800;4.904;2023-02-28T00:07:18;6.10;;;5.37;;
11839;SDS011;5979;50.800;4.904;2023-02-28T00:09:44;6.50;;;5.90;;
11839;SDS011;5979;50.800;4.904;2023-02-28T00:12:09;5.70;;;5.20;;
11839;SDS011;5979;50.800;4.904;2023-02-28T00:14:36;5.63;;;5.13;;
11839;SDS011;5979;50.800;4.904;2023-02-28T00:17:01;5.83;;;5.27;;
11839;SDS011;5979;50.800;4.904;2023-02-28T00:19:27;5.80;;;5.30;;
11839;SDS011;5979;50.800;4.904;2023-02-28T00:21:53;6.33;;;5.57;;
11839;SDS011;5979;50.800;4.904;2023-02-28T00:24:18;7.40;;;5.53;;
11839;SDS011;5979;50.800;4.904;2023-02-28T00:26:44;5.80;;;5.30;;
11839;SDS011;5979;50.800;4.904;2023-02-28T00:29:10;6.10;;;5.40;;
11839;SDS011;5979;50.800;4.904;2023-02-28T00:31:35;7.40;;;5.37;;
11839;SDS011;5979;50.800;4.904;2023-02-28T00:34:01;6.00;;;5.40;;
11839;SDS011;5979;50.800;4.904;2023-02-28T00:36:26;6.43;;;5.70;;
11839;SDS011;5979;50.800;4.904;2023-02-28T00:38:52;7.77;;;5.70;;
11839;SDS011;5979;50.800;4.904;2023-02-28T00:41:18;6.00;;;5.40;;
11839;SDS011;5979;50.800;4.904;2023-02-28T00:43:44;9.17;;;6.10;;
11839;SDS011;5979;50.800;4.904;2023-02-28T00:46:09;6.80;;;6.10;;
11839;SDS011;5979;50.800;4.904;2023-02-28T00:48:36;6.10;;;5.50;;
11839;SDS011;5979;50.800;4.904;2023-02-28T00:51:01;7.60;;;5.57;;
11839;SDS011;5979;50.800;4.904;2023-02-28T00:53:28;8.63;;;5.50;;
11839;SDS011;5979;50.800;4.904;2023-02-28T00:55:54;6.07;;;5.47;;
11839;SDS011;5979;50.800;4.904;2023-02-28T00:58:19;8.00;;;5.83;;
11839;SDS011;5979;50.800;4.904;2023-02-28T01:00:45;7.37;;;5.07;;
11839;SDS011;5979;50.800;4.904;2023-02-28T01:03:14;6.43;;;5.10;;
11839;SDS011;5979;50.800;4.904;2023-02-28T01:05:41;7.17;;;5.63;;
11839;SDS011;5979;50.800;4.904;2023-02-28T01:08:07;6.27;;;5.30;;
11839;SDS011;5979;50.800;4.904;2023-02-28T01:10:33;8.87;;;5.93;;
11839;SDS011;5979;50.800;4.904;2023-02-28T01:12:59;7.30;;;5.67;;
11839;SDS011;5979;50.800;4.904;2023-02-28T01:15:24;6.43;;;5.40;;
11839;SDS011;5979;50.800;4.904;2023-02-28T01:17:50;6.33;;;5.40;;
11839;SDS011;5979;50.800;4.904;2023-02-28T01:20:16;5.70;;;5.10;;
11839;SDS011;5979;50.800;4.904;2023-02-28T01:22:41;6.43;;;5.03;;
11839;SDS011;5979;50.800;4.904;2023-02-28T01:25:07;8.03;;;6.40;;
11839;SDS011;5979;50.800;4.904;2023-02-28T01:27:33;6.53;;;5.83;;
11839;SDS011;5979;50.800;4.904;2023-02-28T01:29:59;7.70;;;6.10;;
11839;SDS011;5979;50.800;4.904;2023-02-28T01:32:24;7.07;;;6.37;;
11839;SDS011;5979;50.800;4.904;2023-02-28T01:34:50;5.70;;;5.20;;
11839;SDS011;5979;50.800;4.904;2023-02-28T01:37:15;7.83;;;5.80;;
11839;SDS011;5979;50.800;4.904;2023-02-28T01:39:41;8.00;;;5.83;;
11839;SDS011;5979;50.800;4.904;2023-02-28T01:42:08;8.70;;;6.10;;
11839;SDS011;5979;50.800;4.904;2023-02-28T01:44:55;6.77;;;6.20;;
11839;SDS011;5979;50.800;4.904;2023-02-28T01:47:41;8.63;;;6.00;;
11839;SDS011;5979;50.800;4.904;2023-02-28T01:50:09;6.10;;;5.60;;
11839;SDS011;5979;50.800;4.904;2023-02-28T01:52:40;6.50;;;5.97;;
11839;SDS011;5979;50.800;4.904;2023-02-28T01:55:07;11.93;;;6.10;;
11839;SDS011;5979;50.800;4.904;2023-02-28T01:57:35;6.60;;;5.97;;
11839;SDS011;5979;50.800;4.904;2023-02-28T02:00:14;6.30;;;5.80;;
11839;SDS011;5979;50.800;4.904;2023-02-28T02:02:43;7.17;;;6.00;;
11839;SDS011;5979;50.800;4.904;2023-02-28T02:05:15;6.60;;;5.87;;
11839;SDS011;5979;50.800;4.904;2023-02-28T02:07:50;8.27;;;6.23;;
11839;SDS011;5979;50.800;4.904;2023-02-28T02:10:24;7.80;;;5.67;;
11839;SDS011;5979;50.800;4.904;2023-02-28T02:37:50;7.03;;;6.33;;
11839;SDS011;5979;50.800;4.904;2023-02-28T02:40:25;7.07;;;6.37;;
11839;SDS011;5979;50.800;4.904;2023-02-28T02:42:56;7.63;;;6.20;;
11839;SDS011;5979;50.800;4.904;2023-02-28T02:45:29;7.27;;;6.30;;
11839;SDS011;5979;50.800;4.904;2023-02-28T02:48:03;8.77;;;6.20;;
11839;SDS011;5979;50.800;4.904;2023-02-28T02:50:39;7.83;;;5.43;;
11839;SDS011;5979;50.800;4.904;2023-02-28T02:53:08;7.67;;;6.47;;
11839;SDS011;5979;50.800;4.904;2023-02-28T02:55:37;7.07;;;6.00;;
11839;SDS011;5979;50.800;4.904;2023-02-28T02:58:08;7.30;;;6.60;;
11839;SDS011;5979;50.800;4.904;2023-02-28T03:00:39;9.80;;;6.17;;
11839;SDS011;5979;50.800;4.904;2023-02-28T03:03:09;9.47;;;6.63;;
11839;SDS011;5979;50.800;4.904;2023-02-28T03:05:46;8.93;;;6.37;;
11839;SDS011;5979;50.800;4.904;2023-02-28T03:08:14;6.93;;;6.23;;
11839;SDS011;5979;50.800;4.904;2023-02-28T03:10:41;11.07;;;6.30;;
11839;SDS011;5979;50.800;4.904;2023-02-28T03:13:16;6.20;;;5.60;;
11839;SDS011;5979;50.800;4.904;2023-02-28T03:16:08;7.03;;;6.17;;
11839;SDS011;5979;50.800;4.904;2023-02-28T03:21:20;7.20;;;6.40;;
11839;SDS011;5979;50.800;4.904;2023-02-28T03:26:51;7.23;;;6.57;;
11839;SDS011;5979;50.800;4.904;2023-02-28T03:29:26;9.03;;;6.20;;
11839;SDS011;5979;50.800;4.904;2023-02-28T03:32:22;7.20;;;5.80;;
11839;SDS011;5979;50.800;4.904;2023-02-28T03:34:56;9.00;;;6.60;;
11839;SDS011;5979;50.800;4.904;2023-02-28T03:37:24;7.20;;;6.27;;
11839;SDS011;5979;50.800;4.904;2023-02-28T03:40:02;9.77;;;6.63;;
11839;SDS011;5979;50.800;4.904;2023-02-28T03:42:38;9.53;;;6.40;;
11839;SDS011;5979;50.800;4.904;2023-02-28T03:45:22;7.20;;;6.50;;
11839;SDS011;5979;50.800;4.904;2023-02-28T03:55:38;9.47;;;6.60;;
11839;SDS011;5979;50.800;4.904;2023-02-28T03:58:19;7.40;;;6.67;;
11839;SDS011;5979;50.800;4.904;2023-02-28T04:00:52;7.13;;;6.37;;
11839;SDS011;5979;50.800;4.904;2023-02-28T04:03:24;8.07;;;6.60;;
11839;SDS011;5979;50.800;4.904;2023-02-28T04:05:50;7.47;;;6.77;;
11839;SDS011;5979;50.800;4.904;2023-02-28T04:08:20;9.27;;;6.23;;
11839;SDS011;5979;50.800;4.904;2023-02-28T04:10:49;7.67;;;6.90;;
11839;SDS011;5979;50.800;4.904;2023-02-28T04:13:21;7.67;;;6.87;;
11839;SDS011;5979;50.800;4.904;2023-02-28T04:15:47;8.23;;;7.03;;
11839;SDS011;5979;50.800;4.904;2023-02-28T04:18:13;7.77;;;6.93;;
11839;SDS011;5979;50.800;4.904;2023-02-28T04:20:38;7.17;;;6.53;;
11839;SDS011;5979;50.800;4.904;2023-02-28T04:23:04;8.67;;;7.10;;
11839;SDS011;5979;50.800;4.904;2023-02-28T04:25:29;6.60;;;5.93;;
11839;SDS011;5979;50.800;4.904;2023-02-28T04:27:55;9.90;;;7.20;;
11839;SDS011;5979;50.800;4.904;2023-02-28T04:30:21;7.03;;;6.40;;
11839;SDS011;5979;50.800;4.904;2023-02-28T04:32:46;8.13;;;6.87;;
11839;SDS011;5979;50.800;4.904;2023-02-28T04:35:12;6.83;;;6.23;;
11839;SDS011;5979;50.800;4.904;2023-02-28T04:37:38;8.37;;;6.93;;
11839;SDS011;5979;50.800;4.904;2023-02-28T04:40:03;8.23;;;6.90;;
11839;SDS011;5979;50.800;4.904;2023-02-28T04:42:29;9.37;;;7.03;;
11839;SDS011;5979;50.800;4.904;2023-02-28T04:45:01;8.73;;;6.90;;
11839;SDS011;5979;50.800;4.904;2023-02-28T04:47:27;8.23;;;6.93;;
11839;SDS011;5979;50.800;4.904;2023-02-28T04:49:53;7.50;;;6.77;;
11839;SDS011;5979;50.800;4.904;2023-02-28T04:52:19;9.83;;;7.33;;
11839;SDS011;5979;50.800;4.904;2023-02-28T04:54:44;9.47;;;8.37;;
11839;SDS011;5979;50.800;4.904;2023-02-28T04:57:10;8.50;;;7.30;;
11839;SDS011;5979;50.800;4.904;2023-02-28T04:59:36;9.93;;;8.40;;
11839;SDS011;5979;50.800;4.904;2023-02-28T05:02:01;9.63;;;8.03;;
11839;SDS011;5979;50.800;4.904;2023-02-28T05:04:34;8.07;;;7.17;;
11839;SDS011;5979;50.800;4.904;2023-02-28T05:07:01;8.83;;;7.47;;
11839;SDS011;5979;50.800;4.904;2023-02-28T05:09:28;8.47;;;7.70;;
11839;SDS011;5979;50.800;4.904;2023-02-28T05:11:54;11.77;;;8.33;;
11839;SDS011;5979;50.800;4.904;2023-02-28T05:14:20;10.47;;;7.97;;
11839;SDS011;5979;50.800;4.904;2023-02-28T05:16:46;9.57;;;8.33;;
11839;SDS011;5979;50.800;4.904;2023-02-28T05:19:12;9.07;;;8.17;;
11839;SDS011;5979;50.800;4.904;2023-02-28T05:21:38;9.70;;;8.23;;
11839;SDS011;5979;50.800;4.904;2023-02-28T05:24:14;9.73;;;8.30;;
11839;SDS011;5979;50.800;4.904;2023-02-28T05:26:41;12.73;;;8.50;;
11839;SDS011;5979;50.800;4.904;2023-02-28T05:29:08;14.17;;;9.23;;
11839;SDS011;5979;50.800;4.904;2023-02-28T05:31:34;10.57;;;8.97;;
11839;SDS011;5979;50.800;4.904;2023-02-28T05:34:00;9.77;;;8.13;;
11839;SDS011;5979;50.800;4.904;2023-02-28T05:36:26;10.70;;;8.60;;
11839;SDS011;5979;50.800;4.904;2023-02-28T05:38:52;10.23;;;8.73;;
11839;SDS011;5979;50.800;4.904;2023-02-28T05:41:18;12.80;;;8.90;;
11839;SDS011;5979;50.800;4.904;2023-02-28T05:43:44;9.80;;;8.80;;
11839;SDS011;5979;50.800;4.904;2023-02-28T05:46:11;10.97;;;8.87;;
11839;SDS011;5979;50.800;4.904;2023-02-28T05:48:38;10.53;;;8.53;;
11839;SDS011;5979;50.800;4.904;2023-02-28T05:51:05;10.07;;;8.13;;
11839;SDS011;5979;50.800;4.904;2023-02-28T05:53:33;12.23;;;8.70;;
11839;SDS011;5979;50.800;4.904;2023-02-28T05:55:59;9.37;;;8.40;;
11839;SDS011;5979;50.800;4.904;2023-02-28T05:58:24;10.50;;;8.47;;
11839;SDS011;5979;50.800;4.904;2023-02-28T06:00:54;10.77;;;8.57;;
11839;SDS011;5979;50.800;4.904;2023-02-28T06:03:19;9.50;;;8.53;;
11839;SDS011;5979;50.800;4.904;2023-02-28T06:05:45;12.20;;;7.97;;
11839;SDS011;5979;50.800;4.904;2023-02-28T06:08:11;12.20;;;8.67;;
11839;SDS011;5979;50.800;4.904;2023-02-28T06:10:36;12.83;;;8.80;;
11839;SDS011;5979;50.800;4.904;2023-02-28T06:13:02;10.47;;;8.17;;
11839;SDS011;5979;50.800;4.904;2023-02-28T06:15:29;10.63;;;8.90;;
11839;SDS011;5979;50.800;4.904;2023-02-28T06:17:55;10.77;;;8.57;;
11839;SDS011;5979;50.800;4.904;2023-02-28T06:20:22;11.37;;;8.87;;
11839;SDS011;5979;50.800;4.904;2023-02-28T06:22:49;10.13;;;8.57;;
11839;SDS011;5979;50.800;4.904;2023-02-28T06:25:19;13.30;;;8.80;;
11839;SDS011;5979;50.800;4.904;2023-02-28T06:27:45;10.10;;;9.10;;
11839;SDS011;5979;50.800;4.904;2023-02-28T06:30:10;11.57;;;8.57;;
11839;SDS011;5979;50.800;4.904;2023-02-28T06:32:37;15.03;;;9.27;;
11839;SDS011;5979;50.800;4.904;2023-02-28T06:35:03;12.53;;;9.03;;
11839;SDS011;5979;50.800;4.904;2023-02-28T06:37:30;10.80;;;9.70;;
11839;SDS011;5979;50.800;4.904;2023-02-28T06:39:56;11.33;;;9.90;;
11839;SDS011;5979;50.800;4.904;2023-02-28T06:42:22;12.70;;;9.07;;
11839;SDS011;5979;50.800;4.904;2023-02-28T06:44:57;13.10;;;9.40;;
11839;SDS011;5979;50.800;4.904;2023-02-28T06:47:23;14.63;;;9.67;;
11839;SDS011;5979;50.800;4.904;2023-02-28T06:49:49;10.20;;;9.13;;
11839;SDS011;5979;50.800;4.904;2023-02-28T06:52:14;12.77;;;10.13;;
11839;SDS011;5979;50.800;4.904;2023-02-28T06:54:40;12.83;;;9.43;;
11839;SDS011;5979;50.800;4.904;2023-02-28T06:57:06;12.67;;;10.27;;
11839;SDS011;5979;50.800;4.904;2023-02-28T06:59:32;10.83;;;9.67;;
11839;SDS011;5979;50.800;4.904;2023-02-28T07:01:58;12.97;;;9.17;;
11839;SDS011;5979;50.800;4.904;2023-02-28T07:04:23;11.60;;;9.23;;
11839;SDS011;5979;50.800;4.904;2023-02-28T07:06:49;11.27;;;8.90;;
11839;SDS011;5979;50.800;4.904;2023-02-28T07:09:15;11.73;;;10.03;;
11839;SDS011;5979;50.800;4.904;2023-02-28T07:11:41;15.53;;;8.77;;
11839;SDS011;5979;50.800;4.904;2023-02-28T07:14:08;11.13;;;8.70;;
11839;SDS011;5979;50.800;4.904;2023-02-28T07:16:33;11.50;;;8.80;;
11839;SDS011;5979;50.800;4.904;2023-02-28T07:19:00;10.63;;;9.07;;
11839;SDS011;5979;50.800;4.904;2023-02-28T07:21:26;12.50;;;8.90;;
11839;SDS011;5979;50.800;4.904;2023-02-28T07:23:52;13.33;;;9.57;;
11839;SDS011;5979;50.800;4.904;2023-02-28T07:26:18;11.73;;;9.20;;
11839;SDS011;5979;50.800;4.904;2023-02-28T07:28:46;9.23;;;8.27;;
11839;SDS011;5979;50.800;4.904;2023-02-28T07:31:13;10.03;;;8.87;;
11839;SDS011;5979;50.800;4.904;2023-02-28T07:33:39;10.47;;;8.70;;
11839;SDS011;5979;50.800;4.904;2023-02-28T07:36:06;7.77;;;6.80;;
11839;SDS011;5979;50.800;4.904;2023-02-28T07:38:40;8.83;;;7.57;;
11839;SDS011;5979;50.800;4.904;2023-02-28T07:41:11;11.27;;;8.13;;
11839;SDS011;5979;50.800;4.904;2023-02-28T07:43:36;10.10;;;7.50;;
11839;SDS011;5979;50.800;4.904;2023-02-28T07:46:07;10.57;;;7.80;;
11839;SDS011;5979;50.800;4.904;2023-02-28T07:48:35;7.27;;;6.53;;
11839;SDS011;5979;50.800;4.904;2023-02-28T07:51:01;11.17;;;6.90;;
11839;SDS011;5979;50.800;4.904;2023-02-28T07:53:27;10.80;;;7.30;;
11839;SDS011;5979;50.800;4.904;2023-02-28T07:55:57;7.90;;;7.17;;
11839;SDS011;5979;50.800;4.904;2023-02-28T07:58:24;10.30;;;7.63;;
11839;SDS011;5979;50.800;4.904;2023-02-28T08:00:50;9.57;;;7.60;;
11839;SDS011;5979;50.800;4.904;2023-02-28T08:03:17;9.30;;;7.37;;
11839;SDS011;5979;50.800;4.904;2023-02-28T08:05:43;9.27;;;7.50;;
11839;SDS011;5979;50.800;4.904;2023-02-28T08:08:09;8.50;;;6.53;;
11839;SDS011;5979;50.800;4.904;2023-02-28T08:10:35;7.53;;;6.63;;
11839;SDS011;5979;50.800;4.904;2023-02-28T08:13:01;7.77;;;5.97;;
11839;SDS011;5979;50.800;4.904;2023-02-28T08:15:27;6.77;;;6.07;;
11839;SDS011;5979;50.800;4.904;2023-02-28T08:17:53;8.30;;;6.70;;
11839;SDS011;5979;50.800;4.904;2023-02-28T08:20:21;6.40;;;5.80;;
11839;SDS011;5979;50.800;4.904;2023-02-28T08:22:47;7.83;;;6.50;;
11839;SDS011;5979;50.800;4.904;2023-02-28T08:25:12;7.37;;;5.90;;
11839;SDS011;5979;50.800;4.904;2023-02-28T08:27:38;7.67;;;6.00;;
11839;SDS011;5979;50.800;4.904;2023-02-28T08:30:04;7.43;;;6.67;;
11839;SDS011;5979;50.800;4.904;2023-02-28T08:32:33;6.10;;;5.50;;
11839;SDS011;5979;50.800;4.904;2023-02-28T08:34:59;5.97;;;5.47;;
11839;SDS011;5979;50.800;4.904;2023-02-28T08:37:24;7.27;;;6.43;;
11839;SDS011;5979;50.800;4.904;2023-02-28T08:39:50;8.80;;;6.10;;
11839;SDS011;5979;50.800;4.904;2023-02-28T08:42:16;9.33;;;5.97;;
11839;SDS011;5979;50.800;4.904;2023-02-28T08:44:42;6.07;;;5.20;;
11839;SDS011;5979;50.800;4.904;2023-02-28T08:47:07;8.43;;;5.47;;
11839;SDS011;5979;50.800;4.904;2023-02-28T08:49:33;5.53;;;5.10;;
11839;SDS011;5979;50.800;4.904;2023-02-28T08:51:59;5.70;;;5.20;;
11839;SDS011;5979;50.800;4.904;2023-02-28T08:54:24;5.57;;;4.90;;
11839;SDS011;5979;50.800;4.904;2023-02-28T08:56:50;5.83;;;5.20;;
11839;SDS011;5979;50.800;4.904;2023-02-28T08:59:16;5.33;;;4.93;;
11839;SDS011;5979;50.800;4.904;2023-02-28T09:01:41;6.47;;;5.60;;
11839;SDS011;5979;50.800;4.904;2023-02-28T09:04:08;5.83;;;5.33;;
11839;SDS011;5979;50.800;4.904;2023-02-28T09:06:36;4.83;;;4.50;;
11839;SDS011;5979;50.800;4.904;2023-02-28T09:09:03;5.97;;;5.37;;
11839;SDS011;5979;50.800;4.904;2023-02-28T09:11:31;6.47;;;5.03;;
11839;SDS011;5979;50.800;4.904;2023-02-28T09:13:57;5.57;;;5.17;;
11839;SDS011;5979;50.800;4.904;2023-02-28T09:16:25;5.60;;;4.70;;
11839;SDS011;5979;50.800;4.904;2023-02-28T09:18:51;6.10;;;4.90;;
11839;SDS011;5979;50.800;4.904;2023-02-28T09:21:17;6.07;;;5.27;;
11839;SDS011;5979;50.800;4.904;2023-02-28T09:23:44;4.97;;;4.63;;
11839;SDS011;5979;50.800;4.904;2023-02-28T09:26:18;7.73;;;5.40;;
11839;SDS011;5979;50.800;4.904;2023-02-28T09:28:47;5.17;;;4.77;;
11839;SDS011;5979;50.800;4.904;2023-02-28T09:31:13;5.97;;;4.60;;
11839;SDS011;5979;50.800;4.904;2023-02-28T09:33:40;4.70;;;4.30;;
11839;SDS011;5979;50.800;4.904;2023-02-28T09:36:06;5.03;;;4.63;;
11839;SDS011;5979;50.800;4.904;2023-02-28T09:38:32;4.47;;;4.07;;
11839;SDS011;5979;50.800;4.904;2023-02-28T09:40:59;6.80;;;4.80;;
11839;SDS011;5979;50.800;4.904;2023-02-28T09:43:34;5.27;;;4.77;;
11839;SDS011;5979;50.800;4.904;2023-02-28T09:48:49;5.70;;;5.20;;
11839;SDS011;5979;50.800;4.904;2023-02-28T09:54:09;6.43;;;3.93;;
11839;SDS011;5979;50.800;4.904;2023-02-28T09:56:43;4.03;;;3.70;;
11839;SDS011;5979;50.800;4.904;2023-02-28T10:02:04;4.57;;;3.97;;
11839;SDS011;5979;50.800;4.904;2023-02-28T10:09:49;4.17;;;3.87;;
11839;SDS011;5979;50.800;4.904;2023-02-28T10:12:20;4.00;;;3.70;;
11839;SDS011;5979;50.800;4.904;2023-02-28T10:14:47;4.47;;;4.07;;
11839;SDS011;5979;50.800;4.904;2023-02-28T10:17:21;5.13;;;4.23;;
11839;SDS011;5979;50.800;4.904;2023-02-28T10:19:55;4.40;;;3.87;;
11839;SDS011;5979;50.800;4.904;2023-02-28T10:22:42;4.00;;;3.70;;
11839;SDS011;5979;50.800;4.904;2023-02-28T10:25:18;3.87;;;3.53;;
11839;SDS011;5979;50.800;4.904;2023-02-28T10:27:46;5.30;;;3.70;;
11839;SDS011;5979;50.800;4.904;2023-02-28T10:30:13;4.30;;;4.00;;
11839;SDS011;5979;50.800;4.904;2023-02-28T10:32:39;4.23;;;3.40;;
11839;SDS011;5979;50.800;4.904;2023-02-28T10:37:34;3.70;;;3.40;;
11839;SDS011;5979;50.800;4.904;2023-02-28T10:40:04;3.30;;;3.10;;
11839;SDS011;5979;50.800;4.904;2023-02-28T10:43:03;3.43;;;3.23;;
11839;SDS011;5979;50.800;4.904;2023-02-28T10:45:31;3.07;;;2.87;;
11839;SDS011;5979;50.800;4.904;2023-02-28T10:50:56;3.37;;;3.17;;
11839;SDS011;5979;50.800;4.904;2023-02-28T11:04:18;3.70;;;3.03;;
11839;SDS011;5979;50.800;4.904;2023-02-28T11:06:44;4.87;;;3.37;;
11839;SDS011;5979;50.800;4.904;2023-02-28T11:09:24;3.90;;;3.60;;
11839;SDS011;5979;50.800;4.904;2023-02-28T11:12:00;3.83;;;3.10;;
11839;SDS011;5979;50.800;4.904;2023-02-28T11:14:34;4.03;;;3.07;;
11839;SDS011;5979;50.800;4.904;2023-02-28T11:17:14;4.30;;;2.97;;
11839;SDS011;5979;50.800;4.904;2023-02-28T11:19:46;3.30;;;3.00;;
11839;SDS011;5979;50.800;4.904;2023-02-28T11:22:18;3.33;;;2.87;;
11839;SDS011;5979;50.800;4.904;2023-02-28T11:24:47;4.20;;;3.20;;
11839;SDS011;5979;50.800;4.904;2023-02-28T11:29:58;3.53;;;3.30;;
11839;SDS011;5979;50.800;4.904;2023-02-28T11:32:26;3.60;;;3.30;;
11839;SDS011;5979;50.800;4.904;2023-02-28T11:35:01;3.67;;;3.43;;
11839;SDS011;5979;50.800;4.904;2023-02-28T11:37:36;4.20;;;3.40;;
11839;SDS011;5979;50.800;4.904;2023-02-28T11:40:05;3.57;;;3.27;;
11839;SDS011;5979;50.800;4.904;2023-02-28T11:58:38;3.40;;;3.10;;
11839;SDS011;5979;50.800;4.904;2023-02-28T12:01:18;3.80;;;3.50;;
11839;SDS011;5979;50.800;4.904;2023-02-28T12:10:03;3.73;;;3.20;;
11839;SDS011;5979;50.800;4.904;2023-02-28T12:18:17;3.30;;;3.10;;
11839;SDS011;5979;50.800;4.904;2023-02-28T12:20:47;5.13;;;3.30;;
11839;SDS011;5979;50.800;4.904;2023-02-28T12:26:07;3.40;;;3.10;;
11839;SDS011;5979;50.800;4.904;2023-02-28T12:28:42;3.17;;;2.90;;
11839;SDS011;5979;50.800;4.904;2023-02-28T12:34:01;2.80;;;2.60;;
11839;SDS011;5979;50.800;4.904;2023-02-28T12:36:34;3.20;;;3.00;;
11839;SDS011;5979;50.800;4.904;2023-02-28T12:39:45;5.70;;;2.73;;
11839;SDS011;5979;50.800;4.904;2023-02-28T12:41:59;2.97;;;2.67;;
11839;SDS011;5979;50.800;4.904;2023-02-28T12:47:24;3.13;;;2.83;;
11839;SDS011;5979;50.800;4.904;2023-02-28T12:49:51;3.73;;;3.30;;
11839;SDS011;5979;50.800;4.904;2023-02-28T12:52:47;3.17;;;2.97;;
11839;SDS011;5979;50.800;4.904;2023-02-28T12:55:27;3.13;;;2.93;;
11839;SDS011;5979;50.800;4.904;2023-02-28T12:58:10;2.97;;;2.77;;
11839;SDS011;5979;50.800;4.904;2023-02-28T13:00:47;3.13;;;2.93;;
11839;SDS011;5979;50.800;4.904;2023-02-28T13:11:51;3.20;;;3.00;;
11839;SDS011;5979;50.800;4.904;2023-02-28T13:16:58;2.97;;;2.80;;
11839;SDS011;5979;50.800;4.904;2023-02-28T13:19:37;2.80;;;2.60;;
11839;SDS011;5979;50.800;4.904;2023-02-28T13:22:05;2.80;;;2.70;;
11839;SDS011;5979;50.800;4.904;2023-02-28T13:24:52;3.27;;;2.90;;
11839;SDS011;5979;50.800;4.904;2023-02-28T13:27:23;3.33;;;2.87;;
11839;SDS011;5979;50.800;4.904;2023-02-28T13:38:48;3.70;;;3.40;;
11839;SDS011;5979;50.800;4.904;2023-02-28T13:49:20;3.40;;;3.10;;
11839;SDS011;5979;50.800;4.904;2023-02-28T14:05:32;3.57;;;3.27;;
11839;SDS011;5979;50.800;4.904;2023-02-28T14:08:02;3.87;;;3.57;;
11839;SDS011;5979;50.800;4.904;2023-02-28T14:13:43;3.80;;;3.60;;
11839;SDS011;5979;50.800;4.904;2023-02-28T14:16:13;3.50;;;3.20;;
11839;SDS011;5979;50.800;4.904;2023-02-28T14:21:33;3.73;;;3.43;;
11839;SDS011;5979;50.800;4.904;2023-02-28T14:27:08;4.60;;;4.10;;
11839;SDS011;5979;50.800;4.904;2023-02-28T14:35:09;4.00;;;3.70;;
11839;SDS011;5979;50.800;4.904;2023-02-28T14:38:17;4.30;;;3.97;;
11839;SDS011;5979;50.800;4.904;2023-02-28T14:40:49;4.57;;;4.20;;
11839;SDS011;5979;50.800;4.904;2023-02-28T14:43:22;4.70;;;4.10;;
11839;SDS011;5979;50.800;4.904;2023-02-28T14:45:50;4.27;;;3.97;;
11839;SDS011;5979;50.800;4.904;2023-02-28T14:48:19;3.80;;;3.60;;
11839;SDS011;5979;50.800;4.904;2023-02-28T14:50:50;4.23;;;3.90;;
11839;SDS011;5979;50.800;4.904;2023-02-28T14:53:18;3.97;;;3.67;;
11839;SDS011;5979;50.800;4.904;2023-02-28T14:55:47;5.17;;;4.67;;
11839;SDS011;5979;50.800;4.904;2023-02-28T15:00:50;4.20;;;3.90;;
11839;SDS011;5979;50.800;4.904;2023-02-28T15:05:56;7.93;;;4.60;;
11839;SDS011;5979;50.800;4.904;2023-02-28T15:08:30;4.47;;;4.10;;
11839;SDS011;5979;50.800;4.904;2023-02-28T15:13:29;4.60;;;4.30;;
11839;SDS011;5979;50.800;4.904;2023-02-28T15:16:01;4.87;;;4.23;;
11839;SDS011;5979;50.800;4.904;2023-02-28T15:18:48;4.47;;;4.07;;
11839;SDS011;5979;50.800;4.904;2023-02-28T15:21:21;4.37;;;4.07;;
11839;SDS011;5979;50.800;4.904;2023-02-28T15:23:55;4.23;;;3.67;;
11839;SDS011;5979;50.800;4.904;2023-02-28T15:26:42;5.27;;;3.23;;
11839;SDS011;5979;50.800;4.904;2023-02-28T15:29:19;4.30;;;3.90;;
11839;SDS011;5979;50.800;4.904;2023-02-28T15:31:51;4.37;;;4.07;;
11839;SDS011;5979;50.800;4.904;2023-02-28T15:36:59;4.63;;;4.23;;
11839;SDS011;5979;50.800;4.904;2023-02-28T15:39:25;3.93;;;3.73;;
11839;SDS011;5979;50.800;4.904;2023-02-28T15:42:12;4.27;;;3.97;;
11839;SDS011;5979;50.800;4.904;2023-02-28T15:44:43;3.87;;;3.63;;
11839;SDS011;5979;50.800;4.904;2023-02-28T15:47:19;4.07;;;3.40;;
11839;SDS011;5979;50.800;4.904;2023-02-28T15:49:51;3.83;;;3.57;;
11839;SDS011;5979;50.800;4.904;2023-02-28T15:52:29;4.40;;;4.00;;
11839;SDS011;5979;50.800;4.904;2023-02-28T15:55:16;5.10;;;3.87;;
11839;SDS011;5979;50.800;4.904;2023-02-28T15:57:43;7.70;;;4.30;;
11839;SDS011;5979;50.800;4.904;2023-02-28T16:00:15;4.47;;;3.83;;
11839;SDS011;5979;50.800;4.904;2023-02-28T16:02:44;4.60;;;4.20;;
11839;SDS011;5979;50.800;4.904;2023-02-28T16:07:37;5.10;;;3.80;;
11839;SDS011;5979;50.800;4.904;2023-02-28T16:10:08;3.57;;;3.27;;
11839;SDS011;5979;50.800;4.904;2023-02-28T16:12:36;3.73;;;3.43;;
11839;SDS011;5979;50.800;4.904;2023-02-28T16:15:08;3.60;;;3.30;;
11839;SDS011;5979;50.800;4.904;2023-02-28T16:17:42;4.03;;;3.70;;
11839;SDS011;5979;50.800;4.904;2023-02-28T16:20:12;3.63;;;3.43;;
11839;SDS011;5979;50.800;4.904;2023-02-28T16:22:42;4.27;;;3.97;;
11839;SDS011;5979;50.800;4.904;2023-02-28T16:25:10;3.80;;;3.60;;
11839;SDS011;5979;50.800;4.904;2023-02-28T16:27:37;4.07;;;3.60;;
11839;SDS011;5979;50.800;4.904;2023-02-28T16:30:04;3.70;;;3.40;;
11839;SDS011;5979;50.800;4.904;2023-02-28T16:32:31;4.87;;;4.17;;
11839;SDS011;5979;50.800;4.904;2023-02-28T16:35:00;3.80;;;3.50;;
11839;SDS011;5979;50.800;4.904;2023-02-28T16:37:26;4.10;;;3.63;;
11839;SDS011;5979;50.800;4.904;2023-02-28T16:39:52;3.93;;;3.60;;
11839;SDS011;5979;50.800;4.904;2023-02-28T16:42:25;4.43;;;3.67;;
11839;SDS011;5979;50.800;4.904;2023-02-28T16:44:53;3.80;;;3.50;;
11839;SDS011;5979;50.800;4.904;2023-02-28T16:47:20;3.90;;;3.60;;
11839;SDS011;5979;50.800;4.904;2023-02-28T16:49:46;3.90;;;3.60;;
11839;SDS011;5979;50.800;4.904;2023-02-28T16:52:12;4.23;;;3.60;;
11839;SDS011;5979;50.800;4.904;2023-02-28T16:54:39;5.37;;;3.57;;
11839;SDS011;5979;50.800;4.904;2023-02-28T16:57:05;4.03;;;3.63;;
11839;SDS011;5979;50.800;4.904;2023-02-28T16:59:38;6.17;;;3.63;;
11839;SDS011;5979;50.800;4.904;2023-02-28T17:02:08;4.13;;;3.70;;
11839;SDS011;5979;50.800;4.904;2023-02-28T17:04:37;5.37;;;4.10;;
11839;SDS011;5979;50.800;4.904;2023-02-28T17:07:03;4.80;;;3.73;;
11839;SDS011;5979;50.800;4.904;2023-02-28T17:09:28;4.90;;;3.63;;
11839;SDS011;5979;50.800;4.904;2023-02-28T17:11:54;4.30;;;4.00;;
11839;SDS011;5979;50.800;4.904;2023-02-28T17:14:21;4.30;;;3.97;;
11839;SDS011;5979;50.800;4.904;2023-02-28T17:16:48;4.07;;;3.77;;
11839;SDS011;5979;50.800;4.904;2023-02-28T17:19:14;4.10;;;3.70;;
11839;SDS011;5979;50.800;4.904;2023-02-28T17:21:41;4.00;;;3.70;;
11839;SDS011;5979;50.800;4.904;2023-02-28T17:24:08;5.17;;;4.20;;
11839;SDS011;5979;50.800;4.904;2023-02-28T17:26:37;4.60;;;4.20;;
11839;SDS011;5979;50.800;4.904;2023-02-28T17:29:05;6.93;;;4.57;;
11839;SDS011;5979;50.800;4.904;2023-02-28T17:31:35;4.90;;;4.43;;
11839;SDS011;5979;50.800;4.904;2023-02-28T17:34:03;4.63;;;4.23;;
11839;SDS011;5979;50.800;4.904;2023-02-28T17:36:29;4.27;;;4.07;;
11839;SDS011;5979;50.800;4.904;2023-02-28T17:38:55;6.03;;;4.83;;
11839;SDS011;5979;50.800;4.904;2023-02-28T17:41:23;4.87;;;4.40;;
11839;SDS011;5979;50.800;4.904;2023-02-28T17:43:51;6.43;;;4.50;;
11839;SDS011;5979;50.800;4.904;2023-02-28T17:46:21;5.40;;;4.40;;
11839;SDS011;5979;50.800;4.904;2023-02-28T17:48:49;4.90;;;4.50;;
11839;SDS011;5979;50.800;4.904;2023-02-28T17:51:17;5.43;;;4.93;;
11839;SDS011;5979;50.800;4.904;2023-02-28T17:53:44;5.60;;;5.00;;
11839;SDS011;5979;50.800;4.904;2023-02-28T17:56:13;5.27;;;4.77;;
11839;SDS011;5979;50.800;4.904;2023-02-28T17:58:49;5.77;;;5.27;;
11839;SDS011;5979;50.800;4.904;2023-02-28T18:01:17;7.03;;;5.67;;
11839;SDS011;5979;50.800;4.904;2023-02-28T18:03:45;6.27;;;5.60;;
11839;SDS011;5979;50.800;4.904;2023-02-28T18:06:54;7.10;;;5.57;;
11839;SDS011;5979;50.800;4.904;2023-02-28T18:09:11;5.90;;;5.30;;
11839;SDS011;5979;50.800;4.904;2023-02-28T18:11:41;5.37;;;4.60;;